createdAt,value
2018-11-27T00:00:43.471Z,1012.02
2018-11-27T00:01:43.445Z,1012.07
2018-11-27T00:02:43.459Z,1012.05
2018-11-27T00:03:43.425Z,1012.01
2018-11-27T00:04:43.424Z,1012.06
2018-11-27T00:05:43.408Z,1012.04
2018-11-27T00:06:43.396Z,1012.01
2018-11-27T00:07:43.386Z,1012.02
2018-11-27T00:08:43.386Z,1012.02
2018-11-27T00:09:43.359Z,1012.05
2018-11-27T00:10:43.379Z,1012.10
2018-11-27T00:11:43.342Z,1012.09
2018-11-27T00:12:43.336Z,1012.08
2018-11-27T00:13:43.321Z,1012.12
2018-11-27T00:14:43.308Z,1012.09
2018-11-27T00:15:43.294Z,1012.11
2018-11-27T00:16:43.326Z,1012.14
2018-11-27T00:17:43.273Z,1012.11
2018-11-27T00:18:43.268Z,1012.17
2018-11-27T00:19:43.257Z,1012.12
2018-11-27T00:20:43.245Z,1012.12
2018-11-27T00:21:43.231Z,1012.14
2018-11-27T00:22:43.239Z,1012.16
2018-11-27T00:23:43.221Z,1012.17
2018-11-27T00:24:43.200Z,1012.17
2018-11-27T00:25:43.209Z,1012.15
2018-11-27T00:26:43.184Z,1012.17
2018-11-27T00:27:43.213Z,1012.19
2018-11-27T00:28:43.156Z,1012.20
2018-11-27T00:29:43.151Z,1012.23
2018-11-27T00:30:43.152Z,1012.23
2018-11-27T00:31:43.130Z,1012.20
2018-11-27T00:32:43.119Z,1012.22
2018-11-27T00:33:43.144Z,1012.21
2018-11-27T00:34:43.101Z,1012.23
2018-11-27T00:35:43.088Z,1012.23
2018-11-27T00:36:43.072Z,1012.23
2018-11-27T00:37:43.066Z,1012.22
2018-11-27T00:38:43.053Z,1012.27
2018-11-27T00:39:43.058Z,1012.25
2018-11-27T00:40:43.045Z,1012.29
2018-11-27T00:41:43.024Z,1012.26
2018-11-27T00:42:43.015Z,1012.28
2018-11-27T00:43:43.001Z,1012.25
2018-11-27T00:44:43.023Z,1012.25
2018-11-27T00:45:42.981Z,1012.27
2018-11-27T00:46:42.975Z,1012.25
2018-11-27T00:47:42.956Z,1012.31
2018-11-27T00:48:42.954Z,1012.31
2018-11-27T00:49:42.940Z,1012.35
2018-11-27T00:50:42.956Z,1012.36
2018-11-27T00:51:42.923Z,1012.35
2018-11-27T00:52:42.904Z,1012.33
2018-11-27T00:53:42.899Z,1012.34
2018-11-27T00:54:42.885Z,1012.37
2018-11-27T00:55:42.878Z,1012.35
2018-11-27T00:56:42.872Z,1012.39
2018-11-27T00:57:42.859Z,1012.34
2018-11-27T00:58:42.846Z,1012.35
2018-11-27T00:59:42.832Z,1012.36
2018-11-27T01:00:42.827Z,1012.37
2018-11-27T01:01:42.816Z,1012.41
2018-11-27T01:02:42.811Z,1012.40
2018-11-27T01:03:42.788Z,1012.45
2018-11-27T01:04:42.785Z,1012.47
2018-11-27T01:05:42.769Z,1012.45
2018-11-27T01:06:42.763Z,1012.50
2018-11-27T01:07:42.780Z,1012.48
2018-11-27T01:08:42.742Z,1012.48
2018-11-27T01:09:42.725Z,1012.53
2018-11-27T01:10:42.721Z,1012.53
2018-11-27T01:11:42.711Z,1012.51
2018-11-27T01:12:42.703Z,1012.52
2018-11-27T01:13:42.697Z,1012.54
2018-11-27T01:14:42.682Z,1012.58
2018-11-27T01:15:42.663Z,1012.59
2018-11-27T01:16:42.661Z,1012.61
2018-11-27T01:17:42.647Z,1012.60
2018-11-27T01:18:42.648Z,1012.58
2018-11-27T01:19:42.626Z,1012.61
2018-11-27T01:20:42.616Z,1012.53
2018-11-27T01:21:42.605Z,1012.57
2018-11-27T01:22:42.591Z,1012.58
2018-11-27T01:23:42.654Z,1012.57
2018-11-27T01:24:42.571Z,1012.58
2018-11-27T01:25:42.564Z,1012.56
2018-11-27T01:26:42.553Z,1012.58
2018-11-27T01:27:42.543Z,1012.58
2018-11-27T01:28:42.538Z,1012.56
2018-11-27T01:29:42.553Z,1012.57
2018-11-27T01:30:42.512Z,1012.55
2018-11-27T01:31:42.494Z,1012.55
2018-11-27T01:32:42.531Z,1012.56
2018-11-27T01:33:42.480Z,1012.60
2018-11-27T01:34:42.470Z,1012.56
2018-11-27T01:35:42.493Z,1012.59
2018-11-27T01:36:42.444Z,1012.59
2018-11-27T01:37:42.436Z,1012.57
2018-11-27T01:38:42.429Z,1012.59
2018-11-27T01:39:42.411Z,1012.64
2018-11-27T01:40:42.406Z,1012.59
2018-11-27T01:41:42.411Z,1012.60
2018-11-27T01:42:42.389Z,1012.63
2018-11-27T01:43:42.482Z,1012.63
2018-11-27T01:44:42.361Z,1012.62
2018-11-27T01:45:42.356Z,1012.63
2018-11-27T01:46:42.345Z,1012.64
2018-11-27T01:47:42.335Z,1012.62
2018-11-27T01:48:42.317Z,1012.63
2018-11-27T01:49:42.348Z,1012.64
2018-11-27T01:50:42.293Z,1012.64
2018-11-27T01:51:42.286Z,1012.67
2018-11-27T01:52:42.276Z,1012.66
2018-11-27T01:53:42.274Z,1012.70
2018-11-27T01:54:42.253Z,1012.70
2018-11-27T01:55:42.256Z,1012.70
2018-11-27T01:56:42.240Z,1012.70
2018-11-27T01:57:42.238Z,1012.65
2018-11-27T01:58:42.253Z,1012.64
2018-11-27T01:59:42.209Z,1012.64
2018-11-27T02:00:42.195Z,1012.66
2018-11-27T02:01:42.184Z,1012.62
2018-11-27T02:02:42.172Z,1012.63
2018-11-27T02:03:42.164Z,1012.64
2018-11-27T02:04:42.192Z,1012.64
2018-11-27T02:05:42.138Z,1012.64
2018-11-27T02:06:42.132Z,1012.64
2018-11-27T02:07:42.120Z,1012.65
2018-11-27T02:08:42.106Z,1012.67
2018-11-27T02:09:42.093Z,1012.65
2018-11-27T02:10:42.094Z,1012.65
2018-11-27T02:11:42.078Z,1012.61
2018-11-27T02:12:42.097Z,1012.65
2018-11-27T02:13:42.052Z,1012.69
2018-11-27T02:14:42.049Z,1012.61
2018-11-27T02:15:42.036Z,1012.62
2018-11-27T02:16:42.025Z,1012.67
2018-11-27T02:17:42.018Z,1012.65
2018-11-27T02:18:42.017Z,1012.65
2018-11-27T02:19:41.989Z,1012.70
2018-11-27T02:20:41.985Z,1012.70
2018-11-27T02:21:41.969Z,1012.68
2018-11-27T02:22:41.962Z,1012.70
2018-11-27T02:23:41.959Z,1012.70
2018-11-27T02:24:41.939Z,1012.70
2018-11-27T02:25:41.934Z,1012.63
2018-11-27T02:26:41.913Z,1012.67
2018-11-27T02:27:41.913Z,1012.64
2018-11-27T02:28:41.909Z,1012.68
2018-11-27T02:29:41.885Z,1012.71
2018-11-27T02:30:41.884Z,1012.79
2018-11-27T02:31:41.868Z,1012.78
2018-11-27T02:32:41.853Z,1012.82
2018-11-27T02:33:41.846Z,1012.86
2018-11-27T02:34:41.831Z,1012.84
2018-11-27T02:35:41.879Z,1012.88
2018-11-27T02:36:41.815Z,1012.85
2018-11-27T02:37:41.800Z,1012.86
2018-11-27T02:38:41.811Z,1012.86
2018-11-27T02:39:41.778Z,1012.87
2018-11-27T02:40:41.771Z,1012.86
2018-11-27T02:41:41.796Z,1012.89
2018-11-27T02:42:41.751Z,1012.89
2018-11-27T02:43:41.740Z,1012.95
2018-11-27T02:44:41.724Z,1012.95
2018-11-27T02:45:41.735Z,1012.95
2018-11-27T02:46:41.704Z,1013.00
2018-11-27T02:47:41.693Z,1013.00
2018-11-27T02:48:41.686Z,1012.99
2018-11-27T02:49:41.675Z,1013.00
2018-11-27T02:50:41.702Z,1013.03
2018-11-27T02:51:41.653Z,1013.01
2018-11-27T02:52:41.663Z,1013.07
2018-11-27T02:53:41.628Z,1013.08
2018-11-27T02:54:41.624Z,1013.07
2018-11-27T02:55:41.608Z,1013.06
2018-11-27T02:56:41.649Z,1013.10
2018-11-27T02:57:41.590Z,1013.09
2018-11-27T02:58:41.578Z,1013.11
2018-11-27T02:59:41.566Z,1013.11
2018-11-27T03:00:41.560Z,1013.08
2018-11-27T03:01:41.548Z,1013.09
2018-11-27T03:02:41.570Z,1013.05
2018-11-27T03:03:41.531Z,1013.05
2018-11-27T03:04:41.511Z,1013.07
2018-11-27T03:05:41.503Z,1013.02
2018-11-27T03:06:41.515Z,1013.06
2018-11-27T03:07:41.484Z,1013.06
2018-11-27T03:08:41.486Z,1013.11
2018-11-27T03:09:41.465Z,1013.10
2018-11-27T03:10:41.452Z,1013.06
2018-11-27T03:11:41.441Z,1013.08
2018-11-27T03:12:41.426Z,1013.09
2018-11-27T03:13:41.466Z,1013.08
2018-11-27T03:14:41.406Z,1013.09
2018-11-27T03:15:41.399Z,1013.12
2018-11-27T03:16:41.390Z,1013.13
2018-11-27T03:17:41.376Z,1013.17
2018-11-27T03:18:41.364Z,1013.14
2018-11-27T03:19:41.369Z,1013.12
2018-11-27T03:20:41.373Z,1013.10
2018-11-27T03:21:41.337Z,1013.09
2018-11-27T03:22:41.328Z,1013.13
2018-11-27T03:23:41.349Z,1013.13
2018-11-27T03:24:41.305Z,1013.11
2018-11-27T03:25:41.289Z,1013.09
2018-11-27T03:26:41.280Z,1013.08
2018-11-27T03:27:41.289Z,1013.11
2018-11-27T03:28:41.257Z,1013.14
2018-11-27T03:29:41.267Z,1013.14
2018-11-27T03:30:41.243Z,1013.15
2018-11-27T03:31:41.227Z,1013.16
2018-11-27T03:32:41.218Z,1013.18
2018-11-27T03:33:41.245Z,1013.17
2018-11-27T03:34:41.199Z,1013.17
2018-11-27T03:35:41.184Z,1013.17
2018-11-27T03:36:41.174Z,1013.21
2018-11-27T03:37:41.170Z,1013.18
2018-11-27T03:38:41.151Z,1013.21
2018-11-27T03:39:41.177Z,1013.23
2018-11-27T03:40:41.129Z,1013.24
2018-11-27T03:41:41.126Z,1013.27
2018-11-27T03:42:41.110Z,1013.26
2018-11-27T03:43:41.105Z,1013.27
2018-11-27T03:44:41.089Z,1013.31
2018-11-27T03:45:41.092Z,1013.32
2018-11-27T03:46:41.084Z,1013.35
2018-11-27T03:47:41.062Z,1013.40
2018-11-27T03:48:41.045Z,1013.42
2018-11-27T03:49:41.034Z,1013.39
2018-11-27T03:50:41.057Z,1013.36
2018-11-27T03:51:41.013Z,1013.40
2018-11-27T03:52:41.011Z,1013.38
2018-11-27T03:53:41.003Z,1013.40
2018-11-27T03:54:40.987Z,1013.38
2018-11-27T03:55:40.971Z,1013.40
2018-11-27T03:56:40.973Z,1013.41
2018-11-27T03:57:40.960Z,1013.37
2018-11-27T03:58:40.939Z,1013.41
2018-11-27T03:59:40.938Z,1013.42
2018-11-27T04:00:40.940Z,1013.40
2018-11-27T04:01:40.910Z,1013.41
2018-11-27T04:02:40.943Z,1013.40
2018-11-27T04:03:40.893Z,1013.40
2018-11-27T04:04:40.885Z,1013.42
2018-11-27T04:05:40.871Z,1013.41
2018-11-27T04:06:40.855Z,1013.40
2018-11-27T04:07:40.844Z,1013.42
2018-11-27T04:08:40.851Z,1013.39
2018-11-27T04:09:40.849Z,1013.42
2018-11-27T04:10:40.811Z,1013.41
2018-11-27T04:11:40.806Z,1013.41
2018-11-27T04:12:40.799Z,1013.43
2018-11-27T04:13:40.817Z,1013.40
2018-11-27T04:14:40.775Z,1013.43
2018-11-27T04:15:40.766Z,1013.41
2018-11-27T04:16:40.755Z,1013.43
2018-11-27T04:17:40.744Z,1013.42
2018-11-27T04:18:40.736Z,1013.45
2018-11-27T04:19:40.733Z,1013.43
2018-11-27T04:20:40.749Z,1013.47
2018-11-27T04:21:40.701Z,1013.48
2018-11-27T04:22:40.700Z,1013.45
2018-11-27T04:23:40.679Z,1013.47
2018-11-27T04:24:40.680Z,1013.47
2018-11-27T04:25:40.653Z,1013.50
2018-11-27T04:26:40.653Z,1013.54
2018-11-27T04:27:40.644Z,1013.55
2018-11-27T04:28:40.632Z,1013.56
2018-11-27T04:29:40.621Z,1013.54
2018-11-27T04:30:40.609Z,1013.55
2018-11-27T04:31:40.595Z,1013.58
2018-11-27T04:32:40.589Z,1013.57
2018-11-27T04:33:40.574Z,1013.54
2018-11-27T04:34:40.568Z,1013.62
2018-11-27T04:35:40.556Z,1013.60
2018-11-27T04:36:40.543Z,1013.62
2018-11-27T04:37:40.567Z,1013.62
2018-11-27T04:38:40.514Z,1013.58
2018-11-27T04:39:40.510Z,1013.63
2018-11-27T04:40:40.501Z,1013.64
2018-11-27T04:41:40.486Z,1013.65
2018-11-27T04:42:40.478Z,1013.67
2018-11-27T04:43:40.475Z,1013.70
2018-11-27T04:44:40.461Z,1013.69
2018-11-27T04:45:40.449Z,1013.70
2018-11-27T04:46:40.436Z,1013.68
2018-11-27T04:47:40.423Z,1013.70
2018-11-27T04:48:40.448Z,1013.71
2018-11-27T04:49:40.400Z,1013.69
2018-11-27T04:50:40.399Z,1013.72
2018-11-27T04:51:40.384Z,1013.72
2018-11-27T04:52:40.369Z,1013.75
2018-11-27T04:53:40.360Z,1013.74
2018-11-27T04:54:40.358Z,1013.77
2018-11-27T04:55:40.397Z,1013.80
2018-11-27T04:56:40.327Z,1013.77
2018-11-27T04:57:40.323Z,1013.77
2018-11-27T04:58:40.313Z,1013.80
2018-11-27T04:59:40.295Z,1013.76
2018-11-27T05:00:40.292Z,1013.81
2018-11-27T05:01:40.285Z,1013.88
2018-11-27T05:02:40.270Z,1013.89
2018-11-27T05:03:40.259Z,1013.90
2018-11-27T05:04:40.250Z,1013.92
2018-11-27T05:05:40.238Z,1013.96
2018-11-27T05:06:40.262Z,1013.94
2018-11-27T05:07:40.211Z,1013.97
2018-11-27T05:08:40.206Z,1014.05
2018-11-27T05:09:40.193Z,1013.99
2018-11-27T05:10:40.187Z,1013.96
2018-11-27T05:11:40.174Z,1013.97
2018-11-27T05:12:40.197Z,1013.97
2018-11-27T05:13:40.174Z,1013.96
2018-11-27T05:14:40.145Z,1013.98
2018-11-27T05:15:40.132Z,1013.98
2018-11-27T05:16:40.122Z,1014.02
2018-11-27T05:17:40.120Z,1014.00
2018-11-27T05:18:40.112Z,1014.05
2018-11-27T05:19:40.084Z,1014.01
2018-11-27T05:20:40.081Z,1014.08
2018-11-27T05:21:40.070Z,1014.06
2018-11-27T05:22:40.058Z,1014.07
2018-11-27T05:23:40.047Z,1014.06
2018-11-27T05:24:40.085Z,1014.06
2018-11-27T05:25:40.028Z,1014.06
2018-11-27T05:26:40.032Z,1014.09
2018-11-27T05:27:40.014Z,1014.09
2018-11-27T05:28:39.998Z,1014.11
2018-11-27T05:29:40.011Z,1014.13
2018-11-27T05:30:39.970Z,1014.13
2018-11-27T05:31:39.967Z,1014.17
2018-11-27T05:32:39.955Z,1014.16
2018-11-27T05:33:39.941Z,1014.17
2018-11-27T05:34:39.936Z,1014.20
2018-11-27T05:35:39.937Z,1014.20
2018-11-27T05:36:39.912Z,1014.22
2018-11-27T05:37:39.897Z,1014.28
2018-11-27T05:38:39.891Z,1014.21
2018-11-27T05:39:39.890Z,1014.25
2018-11-27T05:40:39.875Z,1014.22
2018-11-27T05:41:39.898Z,1014.26
2018-11-27T05:42:39.846Z,1014.24
2018-11-27T05:43:39.835Z,1014.25
2018-11-27T05:44:39.829Z,1014.26
2018-11-27T05:45:39.816Z,1014.27
2018-11-27T05:46:39.807Z,1014.23
2018-11-27T05:47:39.834Z,1014.29
2018-11-27T05:48:39.786Z,1014.32
2018-11-27T05:49:39.774Z,1014.30
2018-11-27T05:50:39.766Z,1014.32
2018-11-27T05:51:39.752Z,1014.31
2018-11-27T05:52:39.742Z,1014.30
2018-11-27T05:53:39.755Z,1014.30
2018-11-27T05:54:39.726Z,1014.33
2018-11-27T05:55:39.721Z,1014.32
2018-11-27T05:56:39.743Z,1014.28
2018-11-27T05:57:39.697Z,1014.29
2018-11-27T05:58:39.718Z,1014.31
2018-11-27T05:59:39.674Z,1014.30
2018-11-27T06:00:39.659Z,1014.32
2018-11-27T06:01:39.655Z,1014.33
2018-11-27T06:02:39.654Z,1014.35
2018-11-27T06:03:39.635Z,1014.34
2018-11-27T06:04:39.621Z,1014.40
2018-11-27T06:05:39.612Z,1014.36
2018-11-27T06:06:39.601Z,1014.40
2018-11-27T06:07:39.599Z,1014.41
2018-11-27T06:08:39.575Z,1014.43
2018-11-27T06:09:39.565Z,1014.43
2018-11-27T06:10:39.601Z,1014.41
2018-11-27T06:11:39.544Z,1014.51
2018-11-27T06:12:39.544Z,1014.51
2018-11-27T06:13:39.527Z,1014.57
2018-11-27T06:14:39.512Z,1014.55
2018-11-27T06:15:39.507Z,1014.62
2018-11-27T06:16:39.500Z,1014.65
2018-11-27T06:17:39.481Z,1014.65
2018-11-27T06:18:39.484Z,1014.64
2018-11-27T06:19:39.471Z,1014.74
2018-11-27T06:20:39.449Z,1014.69
2018-11-27T06:21:39.440Z,1014.74
2018-11-27T06:22:39.429Z,1014.77
2018-11-27T06:23:39.455Z,1014.75
2018-11-27T06:24:39.409Z,1014.73
2018-11-27T06:25:39.398Z,1014.73
2018-11-27T06:26:39.395Z,1014.76
2018-11-27T06:27:39.376Z,1014.81
2018-11-27T06:28:39.367Z,1014.83
2018-11-27T06:29:39.370Z,1014.86
2018-11-27T06:30:39.353Z,1014.88
2018-11-27T06:31:39.338Z,1014.95
2018-11-27T06:32:39.333Z,1014.92
2018-11-27T06:33:39.322Z,1014.92
2018-11-27T06:34:39.340Z,1014.94
2018-11-27T06:35:39.296Z,1014.97
2018-11-27T06:36:39.297Z,1014.98
2018-11-27T06:37:39.276Z,1015.03
2018-11-27T06:38:39.269Z,1015.02
2018-11-27T06:39:39.259Z,1015.03
2018-11-27T06:40:39.250Z,1015.07
2018-11-27T06:41:39.239Z,1015.06
2018-11-27T06:42:39.222Z,1015.07
2018-11-27T06:43:39.217Z,1015.10
2018-11-27T06:44:39.209Z,1015.07
2018-11-27T06:45:39.209Z,1015.13
2018-11-27T06:46:39.183Z,1015.10
2018-11-27T06:47:39.169Z,1015.11
2018-11-27T06:48:39.170Z,1015.15
2018-11-27T06:49:39.155Z,1015.17
2018-11-27T06:50:39.147Z,1015.15
2018-11-27T06:51:39.138Z,1015.12
2018-11-27T06:52:39.126Z,1015.13
2018-11-27T06:53:39.113Z,1015.18
2018-11-27T06:54:39.101Z,1015.17
2018-11-27T06:55:39.133Z,1015.19
2018-11-27T06:56:39.079Z,1015.15
2018-11-27T06:57:39.068Z,1015.11
2018-11-27T06:58:39.062Z,1015.15
2018-11-27T06:59:39.051Z,1015.16
2018-11-27T07:00:39.041Z,1015.15
2018-11-27T07:01:39.038Z,1015.16
2018-11-27T07:02:39.020Z,1015.15
2018-11-27T07:03:39.009Z,1015.19
2018-11-27T07:04:38.999Z,1015.17
2018-11-27T07:05:38.992Z,1015.24
2018-11-27T07:06:38.991Z,1015.21
2018-11-27T07:07:38.970Z,1015.29
2018-11-27T07:08:38.962Z,1015.27
2018-11-27T07:09:38.942Z,1015.31
2018-11-27T07:10:38.937Z,1015.30
2018-11-27T07:11:38.961Z,1015.33
2018-11-27T07:12:38.913Z,1015.33
2018-11-27T07:13:38.902Z,1015.34
2018-11-27T07:14:38.891Z,1015.36
2018-11-27T07:15:38.880Z,1015.34
2018-11-27T07:16:38.871Z,1015.35
2018-11-27T07:17:38.873Z,1015.37
2018-11-27T07:18:38.854Z,1015.36
2018-11-27T07:19:38.840Z,1015.37
2018-11-27T07:20:38.827Z,1015.39
2018-11-27T07:21:38.835Z,1015.39
2018-11-27T07:22:38.851Z,1015.43
2018-11-27T07:23:38.797Z,1015.40
2018-11-27T07:24:38.798Z,1015.41
2018-11-27T07:25:38.781Z,1015.41
2018-11-27T07:26:38.766Z,1015.46
2018-11-27T07:27:38.768Z,1015.43
2018-11-27T07:28:38.755Z,1015.42
2018-11-27T07:29:38.735Z,1015.40
2018-11-27T07:30:38.728Z,1015.44
2018-11-27T07:31:38.720Z,1015.50
2018-11-27T07:32:38.706Z,1015.48
2018-11-27T07:33:38.701Z,1015.51
2018-11-27T07:34:38.707Z,1015.51
2018-11-27T07:35:38.669Z,1015.51
2018-11-27T07:36:38.666Z,1015.49
2018-11-27T07:37:38.655Z,1015.52
2018-11-27T07:38:38.643Z,1015.50
2018-11-27T07:39:38.632Z,1015.49
2018-11-27T07:40:38.662Z,1015.48
2018-11-27T07:41:38.606Z,1015.49
2018-11-27T07:42:38.599Z,1015.46
2018-11-27T07:43:38.591Z,1015.54
2018-11-27T07:44:38.574Z,1015.56
2018-11-27T07:45:38.566Z,1015.61
2018-11-27T07:46:38.564Z,1015.55
2018-11-27T07:47:38.542Z,1015.50
2018-11-27T07:48:38.546Z,1015.53
2018-11-27T07:49:38.527Z,1015.53
2018-11-27T07:50:38.510Z,1015.54
2018-11-27T07:51:38.503Z,1015.61
2018-11-27T07:52:38.490Z,1015.58
2018-11-27T07:53:38.486Z,1015.60
2018-11-27T07:54:38.470Z,1015.61
2018-11-27T07:55:38.462Z,1015.64
2018-11-27T07:56:38.446Z,1015.65
2018-11-27T07:57:38.436Z,1015.71
2018-11-27T07:58:38.492Z,1015.64
2018-11-27T07:59:38.421Z,1015.66
2018-11-27T08:00:38.414Z,1015.67
2018-11-27T08:01:38.400Z,1015.69
2018-11-27T08:02:38.394Z,1015.65
2018-11-27T08:03:38.386Z,1015.66
2018-11-27T08:04:38.369Z,1015.72
2018-11-27T08:05:38.352Z,1015.73
2018-11-27T08:06:38.344Z,1015.74
2018-11-27T08:07:38.334Z,1015.76
2018-11-27T08:08:38.330Z,1015.80
2018-11-27T08:09:38.312Z,1015.78
2018-11-27T08:10:38.310Z,1015.72
2018-11-27T08:11:38.302Z,1015.77
2018-11-27T08:12:38.279Z,1015.77
2018-11-27T08:13:38.293Z,1015.73
2018-11-27T08:14:38.266Z,1015.71
2018-11-27T08:15:38.254Z,1015.74
2018-11-27T08:16:38.243Z,1015.68
2018-11-27T08:17:38.235Z,1015.75
2018-11-27T08:18:38.224Z,1015.77
2018-11-27T08:19:38.261Z,1015.81
2018-11-27T08:20:38.194Z,1015.82
2018-11-27T08:21:38.192Z,1015.86
2018-11-27T08:22:38.173Z,1015.82
2018-11-27T08:23:38.169Z,1015.86
2018-11-27T08:24:38.159Z,1015.89
2018-11-27T08:25:38.167Z,1015.95
2018-11-27T08:26:38.139Z,1015.90
2018-11-27T08:27:38.120Z,1015.91
2018-11-27T08:28:38.111Z,1015.90
2018-11-27T08:29:38.101Z,1015.95
2018-11-27T08:30:38.095Z,1015.94
2018-11-27T08:31:38.117Z,1015.94
2018-11-27T08:32:38.072Z,1015.96
2018-11-27T08:33:38.062Z,1015.97
2018-11-27T08:34:38.049Z,1015.97
2018-11-27T08:35:38.035Z,1016.03
2018-11-27T08:36:38.023Z,1016.01
2018-11-27T08:37:38.037Z,1016.03
2018-11-27T08:38:38.002Z,1016.07
2018-11-27T08:39:37.997Z,1016.07
2018-11-27T08:40:37.982Z,1016.07
2018-11-27T08:41:40.383Z,1016.05
2018-11-27T08:42:37.967Z,1016.03
2018-11-27T08:43:37.962Z,1016.08
2018-11-27T08:44:37.938Z,1016.12
2018-11-27T08:45:37.935Z,1016.09
2018-11-27T08:46:37.923Z,1016.11
2018-11-27T08:47:37.912Z,1016.15
2018-11-27T08:48:37.909Z,1016.17
2018-11-27T08:49:37.893Z,1016.18
2018-11-27T08:50:37.881Z,1016.22
2018-11-27T08:51:37.881Z,1016.28
2018-11-27T08:52:37.856Z,1016.19
2018-11-27T08:53:37.857Z,1016.22
2018-11-27T08:54:37.833Z,1016.18
2018-11-27T08:55:37.824Z,1016.22
2018-11-27T08:56:37.812Z,1016.23
2018-11-27T08:57:37.804Z,1016.27
2018-11-27T08:58:37.828Z,1016.36
2018-11-27T08:59:37.787Z,1016.36
2018-11-27T09:00:37.769Z,1016.33
2018-11-27T09:01:37.758Z,1016.37
2018-11-27T09:02:37.750Z,1016.34
2018-11-27T09:03:37.743Z,1016.41
2018-11-27T09:04:37.765Z,1016.39
2018-11-27T09:05:37.719Z,1016.37
2018-11-27T09:06:37.707Z,1016.34
2018-11-27T09:07:37.695Z,1016.37
2018-11-27T09:08:37.685Z,1016.39
2018-11-27T09:09:37.674Z,1016.42
2018-11-27T09:10:37.675Z,1016.45
2018-11-27T09:11:37.652Z,1016.44
2018-11-27T09:12:37.694Z,1016.48
2018-11-27T09:13:37.644Z,1016.50
2018-11-27T09:14:37.635Z,1016.54
2018-11-27T09:15:37.621Z,1016.51
2018-11-27T09:16:37.604Z,1016.52
2018-11-27T09:17:37.594Z,1016.51
2018-11-27T09:18:37.612Z,1016.54
2018-11-27T09:19:37.572Z,1016.55
2018-11-27T09:20:37.569Z,1016.55
2018-11-27T09:21:37.550Z,1016.55
2018-11-27T09:22:37.542Z,1016.57
2018-11-27T09:23:37.527Z,1016.59
2018-11-27T09:24:37.516Z,1016.56
2018-11-27T09:25:37.522Z,1016.62
2018-11-27T09:26:37.522Z,1016.59
2018-11-27T09:27:37.482Z,1016.62
2018-11-27T09:28:37.472Z,1016.62
2018-11-27T09:29:37.461Z,1016.65
2018-11-27T09:30:37.457Z,1016.69
2018-11-27T09:31:37.441Z,1016.63
2018-11-27T09:32:37.461Z,1016.62
2018-11-27T09:33:37.427Z,1016.65
2018-11-27T09:34:37.412Z,1016.67
2018-11-27T09:35:37.404Z,1016.67
2018-11-27T09:36:37.386Z,1016.76
2018-11-27T09:37:37.384Z,1016.74
2018-11-27T09:38:37.380Z,1016.76
2018-11-27T09:39:37.365Z,1016.77
2018-11-27T09:40:37.344Z,1016.82
2018-11-27T09:41:37.338Z,1016.80
2018-11-27T09:42:37.322Z,1016.79
2018-11-27T09:43:37.355Z,1016.77
2018-11-27T09:44:37.305Z,1016.76
2018-11-27T09:45:37.295Z,1016.76
2018-11-27T09:46:45.072Z,1016.78
2018-11-27T09:47:37.279Z,1016.80
2018-11-27T09:48:37.268Z,1016.78
2018-11-27T09:49:37.304Z,1016.78
2018-11-27T09:50:37.244Z,1016.78
2018-11-27T09:51:37.234Z,1016.84
2018-11-27T09:52:37.226Z,1016.90
2018-11-27T09:53:37.222Z,1016.84
2018-11-27T09:54:37.206Z,1016.89
2018-11-27T09:55:37.196Z,1016.83
2018-11-27T09:56:37.179Z,1016.87
2018-11-27T09:57:37.163Z,1016.85
2018-11-27T09:58:37.161Z,1016.87
2018-11-27T09:59:37.150Z,1016.88
2018-11-27T10:00:37.151Z,1016.89
2018-11-27T10:01:37.133Z,1016.90
2018-11-27T10:02:37.127Z,1016.89
2018-11-27T10:03:37.108Z,1016.94
2018-11-27T10:04:37.091Z,1016.93
2018-11-27T10:05:37.090Z,1016.89
2018-11-27T10:06:37.104Z,1016.86
2018-11-27T10:07:37.070Z,1016.89
2018-11-27T10:08:37.048Z,1016.88
2018-11-27T10:09:37.038Z,1016.91
2018-11-27T10:10:37.080Z,1016.96
2018-11-27T10:11:37.020Z,1016.91
2018-11-27T10:12:37.015Z,1016.91
2018-11-27T10:13:36.994Z,1016.90
2018-11-27T10:14:36.991Z,1017.00
2018-11-27T10:15:36.985Z,1016.99
2018-11-27T10:16:37.007Z,1016.99
2018-11-27T10:17:36.957Z,1016.96
2018-11-27T10:18:36.952Z,1017.00
2018-11-27T10:19:36.931Z,1016.99
2018-11-27T10:20:36.921Z,1016.99
2018-11-27T10:21:36.917Z,1017.00
2018-11-27T10:22:36.936Z,1017.01
2018-11-27T10:23:36.892Z,1017.00
2018-11-27T10:24:36.880Z,1017.01
2018-11-27T10:25:36.873Z,1017.00
2018-11-27T10:26:36.857Z,1016.99
2018-11-27T10:27:36.852Z,1016.99
2018-11-27T10:28:36.854Z,1016.98
2018-11-27T10:29:36.824Z,1017.00
2018-11-27T10:30:36.854Z,1017.01
2018-11-27T10:31:36.827Z,1017.02
2018-11-27T10:32:36.794Z,1017.02
2018-11-27T10:33:36.789Z,1017.00
2018-11-27T10:34:36.778Z,1016.99
2018-11-27T10:35:36.767Z,1016.96
2018-11-27T10:36:36.764Z,1016.96
2018-11-27T10:37:36.746Z,1016.97
2018-11-27T10:38:36.735Z,1016.96
2018-11-27T10:39:36.739Z,1016.98
2018-11-27T10:40:36.707Z,1016.99
2018-11-27T10:41:36.709Z,1016.99
2018-11-27T10:42:36.730Z,1016.95
2018-11-27T10:43:36.715Z,1017.04
2018-11-27T10:44:36.670Z,1017.03
2018-11-27T10:45:36.662Z,1017.02
2018-11-27T10:46:36.644Z,1017.02
2018-11-27T10:47:36.667Z,1017.01
2018-11-27T10:48:36.626Z,1016.99
2018-11-27T10:49:36.647Z,1017.07
2018-11-27T10:50:36.607Z,1017.10
2018-11-27T10:51:36.595Z,1017.10
2018-11-27T10:52:36.589Z,1017.07
2018-11-27T10:53:36.573Z,1016.99
2018-11-27T10:54:36.564Z,1017.04
2018-11-27T10:55:36.586Z,1017.06
2018-11-27T10:56:36.544Z,1017.05
2018-11-27T10:57:36.529Z,1017.07
2018-11-27T10:58:36.522Z,1017.03
2018-11-27T10:59:36.506Z,1017.02
2018-11-27T11:00:36.499Z,1017.01
2018-11-27T11:01:36.490Z,1017.00
2018-11-27T11:02:36.483Z,1016.99
2018-11-27T11:03:36.465Z,1017.00
2018-11-27T11:04:36.466Z,1017.08
2018-11-27T11:05:36.447Z,1017.08
2018-11-27T11:06:36.444Z,1017.06
2018-11-27T11:07:36.422Z,1017.10
2018-11-27T11:08:36.413Z,1017.08
2018-11-27T11:09:36.401Z,1017.04
2018-11-27T11:10:36.394Z,1017.03
2018-11-27T11:11:36.415Z,1017.04
2018-11-27T11:12:36.375Z,1017.06
2018-11-27T11:13:36.352Z,1017.04
2018-11-27T11:14:36.341Z,1017.06
2018-11-27T11:15:36.333Z,1017.09
2018-11-27T11:16:36.327Z,1017.10
2018-11-27T11:17:36.317Z,1017.09
2018-11-27T11:18:36.298Z,1017.13
2018-11-27T11:19:36.298Z,1017.14
2018-11-27T11:20:36.283Z,1017.18
2018-11-27T11:21:36.268Z,1017.17
2018-11-27T11:22:36.286Z,1017.23
2018-11-27T11:23:36.246Z,1017.18
2018-11-27T11:24:36.248Z,1017.25
2018-11-27T11:25:36.236Z,1017.24
2018-11-27T11:26:36.213Z,1017.27
2018-11-27T11:27:36.202Z,1017.25
2018-11-27T11:28:36.234Z,1017.28
2018-11-27T11:29:36.191Z,1017.27
2018-11-27T11:30:36.173Z,1017.28
2018-11-27T11:31:36.178Z,1017.31
2018-11-27T11:32:36.156Z,1017.33
2018-11-27T11:33:36.147Z,1017.36
2018-11-27T11:34:36.138Z,1017.39
2018-11-27T11:35:36.139Z,1017.34
2018-11-27T11:36:36.109Z,1017.39
2018-11-27T11:37:36.095Z,1017.40
2018-11-27T11:38:36.086Z,1017.39
2018-11-27T11:39:36.120Z,1017.38
2018-11-27T11:40:36.064Z,1017.34
2018-11-27T11:41:36.065Z,1017.38
2018-11-27T11:42:36.055Z,1017.34
2018-11-27T11:43:36.038Z,1017.34
2018-11-27T11:44:36.027Z,1017.33
2018-11-27T11:45:36.027Z,1017.31
2018-11-27T11:46:36.015Z,1017.35
2018-11-27T11:47:35.994Z,1017.34
2018-11-27T11:48:35.978Z,1017.40
2018-11-27T11:49:35.970Z,1017.40
2018-11-27T11:50:35.957Z,1017.39
2018-11-27T11:51:35.975Z,1017.41
2018-11-27T11:52:35.943Z,1017.48
2018-11-27T11:53:35.931Z,1017.48
2018-11-27T11:54:35.921Z,1017.49
2018-11-27T11:55:35.905Z,1017.51
2018-11-27T11:56:35.893Z,1017.53
2018-11-27T11:57:35.915Z,1017.54
2018-11-27T11:58:35.894Z,1017.56
2018-11-27T11:59:35.866Z,1017.59
2018-11-27T12:00:35.856Z,1017.64
2018-11-27T12:01:35.848Z,1017.61
2018-11-27T12:02:35.839Z,1017.61
2018-11-27T12:03:35.825Z,1017.58
2018-11-27T12:04:35.824Z,1017.62
2018-11-27T12:05:35.808Z,1017.60